createdAt,value
2022-09-14T00:01:44.545Z,63.33
2022-09-14T00:04:17.144Z,63.40
2022-09-14T00:06:46.174Z,63.62
2022-09-14T00:09:17.501Z,63.82
2022-09-14T00:11:46.019Z,63.73
2022-09-14T00:14:14.720Z,63.93
2022-09-14T00:16:44.713Z,63.99
2022-09-14T00:19:19.412Z,64.06
2022-09-14T00:21:51.124Z,63.99
2022-09-14T00:24:20.091Z,64.29
2022-09-14T00:26:48.585Z,64.37
2022-09-14T00:29:17.637Z,64.88
2022-09-14T00:31:46.575Z,65.05
2022-09-14T00:34:18.011Z,65.22
2022-09-14T00:36:48.369Z,65.26
2022-09-14T00:39:18.880Z,65.34
2022-09-14T00:41:49.222Z,65.62
2022-09-14T00:44:55.123Z,65.95
2022-09-14T00:47:23.551Z,65.61
2022-09-14T00:49:53.475Z,65.67
2022-09-14T00:52:25.973Z,65.37
2022-09-14T00:54:56.704Z,65.72
2022-09-14T00:57:26.651Z,65.62
2022-09-14T00:59:55.922Z,65.78
2022-09-14T01:02:27.115Z,65.58
2022-09-14T01:04:57.761Z,65.85
2022-09-14T01:07:42.935Z,66.00
2022-09-14T01:10:25.191Z,65.88
2022-09-14T01:13:07.043Z,66.07
2022-09-14T01:15:44.405Z,65.80
2022-09-14T01:18:17.791Z,65.98
2022-09-14T01:20:53.291Z,66.06
2022-09-14T01:23:30.195Z,65.97
2022-09-14T01:26:32.584Z,66.74
2022-09-14T01:29:04.850Z,67.04
2022-09-14T01:31:37.798Z,67.03
2022-09-14T01:34:10.815Z,67.17
2022-09-14T01:36:44.032Z,67.10
2022-09-14T01:39:16.354Z,67.22
2022-09-14T01:41:47.422Z,67.21
2022-09-14T01:44:21.683Z,67.30
2022-09-14T01:46:54.975Z,67.05
2022-09-14T01:49:29.151Z,67.21
2022-09-14T01:52:02.328Z,67.42
2022-09-14T01:54:33.635Z,67.26
2022-09-14T01:57:05.931Z,67.28
2022-09-14T01:59:40.744Z,67.40
2022-09-14T02:02:14.227Z,67.50
2022-09-14T02:04:47.765Z,68.29
2022-09-14T02:07:17.200Z,67.89
2022-09-14T02:09:46.617Z,67.52
2022-09-14T02:12:16.079Z,67.63
2022-09-14T02:14:47.671Z,67.67
2022-09-14T02:17:16.895Z,68.22
2022-09-14T02:19:49.839Z,68.25
2022-09-14T02:22:18.235Z,68.67
2022-09-14T02:24:46.984Z,68.69
2022-09-14T02:27:15.525Z,69.05
2022-09-14T02:29:45.743Z,68.86
2022-09-14T02:32:31.755Z,69.14
2022-09-14T02:35:09.688Z,68.88
2022-09-14T02:37:46.378Z,68.90
2022-09-14T02:40:22.721Z,68.92
2022-09-14T02:43:01.060Z,68.85
2022-09-14T02:45:40.527Z,68.70
2022-09-14T02:48:21.210Z,69.10
2022-09-14T02:50:54.067Z,69.21
2022-09-14T02:53:32.555Z,69.08
2022-09-14T02:56:05.810Z,69.18
2022-09-14T02:58:38.896Z,69.07
2022-09-14T03:01:11.015Z,69.32
2022-09-14T03:03:39.733Z,69.46
2022-09-14T03:06:08.557Z,69.34
2022-09-14T03:08:37.281Z,69.46
2022-09-14T03:11:07.140Z,69.23
2022-09-14T03:13:35.934Z,69.22
2022-09-14T03:16:09.421Z,69.30
2022-09-14T03:18:38.770Z,69.50
2022-09-14T03:21:08.519Z,69.39
2022-09-14T03:23:38.100Z,69.74
2022-09-14T03:26:09.781Z,69.48
2022-09-14T03:28:38.677Z,69.48
2022-09-14T03:31:10.144Z,69.44
2022-09-14T03:33:39.465Z,69.67
2022-09-14T03:36:16.429Z,69.54
2022-09-14T03:38:46.081Z,69.68
2022-09-14T03:41:15.477Z,69.59
2022-09-14T03:43:44.877Z,69.91
2022-09-14T03:46:16.659Z,69.86
2022-09-14T03:48:45.510Z,69.75
2022-09-14T03:51:15.807Z,69.94
2022-09-14T03:53:45.879Z,69.94
2022-09-14T03:56:16.889Z,69.82
2022-09-14T03:58:46.359Z,70.10
2022-09-14T04:01:18.706Z,69.83
2022-09-14T04:03:47.821Z,70.24
2022-09-14T04:06:16.939Z,69.96
2022-09-14T04:08:46.508Z,70.16
2022-09-14T04:11:17.279Z,69.89
2022-09-14T04:13:46.048Z,69.86
2022-09-14T04:16:16.605Z,70.02
2022-09-14T04:18:46.007Z,70.00
2022-09-14T04:21:17.516Z,69.73
2022-09-14T04:24:10.499Z,69.68
2022-09-14T04:26:35.800Z,70.02
2022-09-14T04:29:04.320Z,70.07
2022-09-14T04:31:35.126Z,70.01
2022-09-14T04:34:03.443Z,69.74
2022-09-14T04:36:32.448Z,69.76
2022-09-14T04:39:02.514Z,69.82
2022-09-14T04:41:31.895Z,69.96
2022-09-14T04:44:01.191Z,69.82
2022-09-14T04:46:31.278Z,69.64
2022-09-14T04:49:01.094Z,69.56
2022-09-14T04:51:30.779Z,69.61
2022-09-14T04:54:00.539Z,69.41
2022-09-14T04:56:30.401Z,69.62
2022-09-14T04:59:00.376Z,69.50
2022-09-14T05:01:30.248Z,69.13
2022-09-14T05:03:59.076Z,69.33
2022-09-14T05:06:31.029Z,69.26
2022-09-14T05:09:00.548Z,69.46
2022-09-14T05:11:30.419Z,69.94
2022-09-14T05:14:00.138Z,69.91
2022-09-14T05:16:30.059Z,70.04
2022-09-14T05:19:01.895Z,69.96
2022-09-14T05:21:33.716Z,70.12
2022-09-14T05:24:04.420Z,70.29
2022-09-14T05:26:33.823Z,70.30
2022-09-14T05:29:03.545Z,70.16
2022-09-14T05:31:33.007Z,70.22
2022-09-14T05:34:02.052Z,70.66
2022-09-14T05:36:31.943Z,70.95
2022-09-14T05:39:01.183Z,70.95
2022-09-14T05:41:29.555Z,71.00
2022-09-14T05:43:57.866Z,71.17
2022-09-14T05:46:26.346Z,71.10
2022-09-14T05:48:54.827Z,70.94
2022-09-14T05:51:25.293Z,71.18
2022-09-14T05:53:56.942Z,71.02
2022-09-14T05:56:26.906Z,71.15
2022-09-14T05:58:55.752Z,71.20
2022-09-14T06:01:26.418Z,71.28
2022-09-14T06:03:55.733Z,71.39
2022-09-14T06:06:24.813Z,71.03
2022-09-14T06:08:56.224Z,71.11
2022-09-14T06:11:26.684Z,71.07
2022-09-14T06:13:55.728Z,70.98
2022-09-14T06:16:25.879Z,71.13
2022-09-14T06:18:56.202Z,71.03
2022-09-14T06:21:25.136Z,71.23
2022-09-14T06:23:55.895Z,71.20
2022-09-14T06:26:24.261Z,71.15
2022-09-14T06:28:53.706Z,70.99
2022-09-14T06:31:22.858Z,71.01
2022-09-14T06:33:52.304Z,70.82
2022-09-14T06:36:23.851Z,71.26
2022-09-14T06:38:52.347Z,71.20
2022-09-14T06:41:26.677Z,71.04
2022-09-14T06:43:57.383Z,71.32
2022-09-14T06:46:27.947Z,71.35
2022-09-14T06:48:58.503Z,71.27
2022-09-14T06:51:31.765Z,71.20
2022-09-14T06:54:01.421Z,71.14
2022-09-14T06:56:33.696Z,71.26
2022-09-14T06:59:02.120Z,71.22
2022-09-14T07:01:30.813Z,71.09
2022-09-14T07:04:00.466Z,71.04
2022-09-14T07:06:30.652Z,71.13
2022-09-14T07:08:59.161Z,70.97
2022-09-14T07:11:29.658Z,71.16
2022-09-14T07:14:00.219Z,71.11
2022-09-14T07:16:29.699Z,71.04
2022-09-14T07:19:02.078Z,71.06
2022-09-14T07:21:31.521Z,71.17
2022-09-14T07:24:00.288Z,71.05
2022-09-14T07:26:30.737Z,71.18
2022-09-14T07:29:03.781Z,71.25
2022-09-14T07:31:34.555Z,71.03
2022-09-14T07:34:05.680Z,71.34
2022-09-14T07:36:36.989Z,71.08
2022-09-14T07:39:06.903Z,71.37
2022-09-14T07:41:36.552Z,71.17
2022-09-14T07:44:08.208Z,71.52
2022-09-14T07:46:39.768Z,71.27
2022-09-14T07:49:09.490Z,71.44
2022-09-14T07:51:38.872Z,71.39
2022-09-14T07:54:08.785Z,71.27
2022-09-14T07:56:37.194Z,71.29
2022-09-14T08:01:56.048Z,71.41
2022-09-14T08:04:24.791Z,71.18
2022-09-14T08:06:53.174Z,71.18
2022-09-14T08:09:21.987Z,71.32
2022-09-14T08:11:50.360Z,71.04
2022-09-14T08:14:20.832Z,71.38
2022-09-14T08:16:49.262Z,71.54
2022-09-14T08:19:20.523Z,71.03
2022-09-14T08:21:49.087Z,70.91
2022-09-14T08:24:20.231Z,71.21
2022-09-14T08:26:49.591Z,71.10
2022-09-14T08:29:20.543Z,70.95
2022-09-14T08:31:51.857Z,70.67
2022-09-14T08:34:21.427Z,70.63
2022-09-14T08:36:50.238Z,70.85
2022-09-14T08:39:19.204Z,70.72
2022-09-14T08:41:55.604Z,70.73
2022-09-14T08:44:30.968Z,71.15
2022-09-14T08:47:04.206Z,71.18
2022-09-14T08:49:42.951Z,70.93
2022-09-14T08:52:17.159Z,71.18
2022-09-14T08:54:49.344Z,70.84
2022-09-14T08:57:21.199Z,70.79
2022-09-14T08:59:58.069Z,70.47
2022-09-14T09:02:42.290Z,70.46
2022-09-14T09:05:26.928Z,70.63
2022-09-14T09:08:01.066Z,70.65
2022-09-14T09:10:31.097Z,70.43
2022-09-14T09:13:01.704Z,70.22
2022-09-14T09:15:37.475Z,70.01
2022-09-14T09:18:10.737Z,70.18
2022-09-14T09:20:46.252Z,70.57
2022-09-14T09:23:17.130Z,70.45
2022-09-14T09:26:05.891Z,70.31
2022-09-14T09:28:35.385Z,70.13
2022-09-14T09:31:14.017Z,70.22
2022-09-14T09:33:43.685Z,70.21
2022-09-14T09:36:16.111Z,70.26
2022-09-14T09:38:44.535Z,70.43
2022-09-14T09:41:17.302Z,70.32
2022-09-14T09:44:00.611Z,70.44
2022-09-14T09:46:32.807Z,70.83
2022-09-14T09:49:05.163Z,70.52
2022-09-14T09:51:35.063Z,70.92
2022-09-14T09:54:09.926Z,71.00
2022-09-14T09:56:41.653Z,70.95
2022-09-14T09:59:27.911Z,70.63
2022-09-14T10:01:58.673Z,70.65
2022-09-14T10:04:30.091Z,70.72
2022-09-14T10:06:59.051Z,70.88
2022-09-14T10:09:29.421Z,70.30
2022-09-14T10:12:00.342Z,70.28
2022-09-14T10:14:32.404Z,70.31
2022-09-14T10:17:17.510Z,70.15
2022-09-14T10:19:49.052Z,70.29
2022-09-14T10:22:27.652Z,70.23
2022-09-14T10:24:58.938Z,70.50
2022-09-14T10:27:43.268Z,70.53
2022-09-14T10:30:16.867Z,70.99
2022-09-14T10:32:50.229Z,71.28
2022-09-14T10:35:18.885Z,71.22
2022-09-14T10:37:59.800Z,70.51
2022-09-14T10:40:34.452Z,70.77
2022-09-14T10:43:14.507Z,70.41
2022-09-14T10:45:48.278Z,70.79
2022-09-14T10:48:46.375Z,70.66
2022-09-14T10:51:32.163Z,70.91
2022-09-14T10:54:12.215Z,71.00
2022-09-14T10:56:55.757Z,70.67
2022-09-14T10:59:31.980Z,70.81
2022-09-14T11:02:31.877Z,71.24
2022-09-14T11:05:16.350Z,71.28
2022-09-14T11:07:59.719Z,70.96
2022-09-14T11:10:35.931Z,70.75
2022-09-14T11:13:51.075Z,70.90
2022-09-14T11:16:34.157Z,70.92
2022-09-14T11:19:11.418Z,70.45
2022-09-14T11:21:50.130Z,70.21
2022-09-14T11:24:22.827Z,70.22
2022-09-14T11:27:04.055Z,69.62
2022-09-14T11:29:37.318Z,69.58
2022-09-14T11:32:24.672Z,69.38
2022-09-14T11:34:58.209Z,69.11
2022-09-14T11:37:32.057Z,69.28
2022-09-14T11:40:08.099Z,69.35
2022-09-14T11:42:44.350Z,69.13
2022-09-14T11:45:18.746Z,69.17
2022-09-14T11:47:55.824Z,69.16
2022-09-14T11:50:28.088Z,68.97
2022-09-14T11:53:05.111Z,68.63
2022-09-14T11:55:34.071Z,68.89
2022-09-14T11:58:06.313Z,68.52
2022-09-14T12:01:03.608Z,68.50
2022-09-14T12:03:54.611Z,68.22
2022-09-14T12:06:45.375Z,67.75
2022-09-14T12:09:46.381Z,67.66
2022-09-14T12:12:33.463Z,67.67
2022-09-14T12:15:03.848Z,68.20
2022-09-14T12:17:39.835Z,68.04
2022-09-14T12:20:38.728Z,68.28
2022-09-14T12:23:16.967Z,68.10
2022-09-14T12:26:06.368Z,68.21
2022-09-14T12:31:33.056Z,68.27
2022-09-14T12:34:16.672Z,68.31
2022-09-14T12:37:16.413Z,68.67
2022-09-14T12:40:36.759Z,68.11
2022-09-14T12:43:48.522Z,68.11
2022-09-14T12:46:41.096Z,68.17
2022-09-14T12:49:30.799Z,68.57
2022-09-14T12:52:05.712Z,68.38
2022-09-14T12:54:51.303Z,67.95
2022-09-14T12:57:30.928Z,67.62
2022-09-14T13:00:07.359Z,67.56
2022-09-14T13:03:08.119Z,67.59
2022-09-14T13:05:36.774Z,67.82
2022-09-14T13:08:11.760Z,67.64
2022-09-14T13:10:47.087Z,67.56
2022-09-14T13:13:19.582Z,67.66
2022-09-14T13:15:53.737Z,67.41
2022-09-14T13:18:37.633Z,67.22
2022-09-14T13:21:18.362Z,67.58
2022-09-14T13:23:47.407Z,67.39
2022-09-14T13:26:21.224Z,67.43
2022-09-14T13:28:51.501Z,67.14
2022-09-14T13:31:24.430Z,66.82
2022-09-14T13:33:55.844Z,66.46
2022-09-14T13:36:27.618Z,66.07
2022-09-14T13:38:58.653Z,66.09
2022-09-14T13:41:27.187Z,66.10
2022-09-14T13:43:57.443Z,65.96
2022-09-14T13:46:28.351Z,65.91
2022-09-14T13:48:58.737Z,66.14
2022-09-14T13:51:28.654Z,66.12
2022-09-14T13:53:58.596Z,65.85
2022-09-14T13:56:31.346Z,65.83
2022-09-14T13:59:17.744Z,65.53
2022-09-14T14:01:55.418Z,65.78
2022-09-14T14:04:30.189Z,65.94
2022-09-14T14:07:08.719Z,66.30
2022-09-14T14:09:44.000Z,66.27
2022-09-14T14:12:21.779Z,66.39
2022-09-14T14:14:55.400Z,66.56
2022-09-14T14:17:32.941Z,67.04
2022-09-14T14:20:34.126Z,66.42
2022-09-14T14:23:20.224Z,66.49
2022-09-14T14:25:52.380Z,66.42
2022-09-14T14:28:26.703Z,66.92
2022-09-14T14:30:55.649Z,67.14
2022-09-14T14:33:24.992Z,67.23
2022-09-14T14:35:56.638Z,67.08
2022-09-14T14:38:26.269Z,67.14
2022-09-14T14:40:58.514Z,67.20
2022-09-14T14:43:28.521Z,67.17
2022-09-14T14:45:59.594Z,67.16
2022-09-14T14:48:28.715Z,66.83
2022-09-14T14:50:58.541Z,67.15
2022-09-14T14:53:28.037Z,67.44
2022-09-14T14:55:56.440Z,67.38
2022-09-14T14:58:25.575Z,67.70
2022-09-14T15:00:54.757Z,67.78
2022-09-14T15:03:23.295Z,68.06
2022-09-14T15:05:51.781Z,67.83
2022-09-14T15:08:21.858Z,68.16
2022-09-14T15:10:50.744Z,67.78
2022-09-14T15:13:19.136Z,67.92
2022-09-14T15:15:47.635Z,68.37
2022-09-14T15:18:16.187Z,68.56
2022-09-14T15:20:44.517Z,68.37
2022-09-14T15:23:15.289Z,68.85
2022-09-14T15:25:45.311Z,69.13
2022-09-14T15:28:13.944Z,68.99
2022-09-14T15:30:42.251Z,69.03
2022-09-14T15:33:10.602Z,69.12
2022-09-14T15:35:39.619Z,69.25
2022-09-14T15:38:08.223Z,69.09
2022-09-14T15:40:36.642Z,69.00
2022-09-14T15:43:06.732Z,68.90
2022-09-14T15:45:35.146Z,69.10
2022-09-14T15:48:04.408Z,69.19
2022-09-14T15:50:32.802Z,69.29
2022-09-14T15:53:02.819Z,69.25
2022-09-14T15:55:31.607Z,69.33
2022-09-14T15:58:00.124Z,69.48
2022-09-14T16:00:30.076Z,69.45
2022-09-14T16:02:58.440Z,69.59
2022-09-14T16:05:26.956Z,69.56
2022-09-14T16:07:56.039Z,69.56
2022-09-14T16:10:25.872Z,69.81
2022-09-14T16:12:56.336Z,69.58
2022-09-14T16:15:25.123Z,69.77
2022-09-14T16:17:56.098Z,69.79
2022-09-14T16:20:24.929Z,69.72
2022-09-14T16:22:53.339Z,69.88
2022-09-14T16:25:21.765Z,70.21
2022-09-14T16:27:50.224Z,70.25
2022-09-14T16:30:18.635Z,70.24
2022-09-14T16:32:47.446Z,70.28
2022-09-14T16:35:17.347Z,70.23
2022-09-14T16:37:46.090Z,70.28
2022-09-14T16:40:14.887Z,70.11
2022-09-14T16:42:43.612Z,70.38
2022-09-14T16:45:12.440Z,70.15
2022-09-14T16:47:41.103Z,70.42
2022-09-14T16:50:10.461Z,70.67
2022-09-14T16:52:41.456Z,70.27
2022-09-14T16:55:10.380Z,70.34
2022-09-14T16:57:40.959Z,70.33
2022-09-14T17:00:11.691Z,70.55
2022-09-14T17:02:40.138Z,70.61
2022-09-14T17:05:10.298Z,70.63
2022-09-14T17:07:40.580Z,70.41
2022-09-14T17:10:09.808Z,70.51
2022-09-14T17:12:38.342Z,70.29
2022-09-14T17:15:07.851Z,70.30
2022-09-14T17:17:36.603Z,70.71
2022-09-14T17:20:05.451Z,70.15
2022-09-14T17:22:34.246Z,70.10
2022-09-14T17:25:05.474Z,70.25
2022-09-14T17:27:33.896Z,70.79
2022-09-14T17:30:02.515Z,70.52
2022-09-14T17:32:30.897Z,70.94
2022-09-14T17:35:00.119Z,70.81
2022-09-14T17:37:30.332Z,71.18
2022-09-14T17:40:00.030Z,71.04
2022-09-14T17:42:29.983Z,71.41
2022-09-14T17:44:59.116Z,71.39
2022-09-14T17:47:28.751Z,71.71
2022-09-14T17:49:57.248Z,71.42
2022-09-14T17:52:25.820Z,71.65
2022-09-14T17:54:54.463Z,71.68
2022-09-14T17:57:23.100Z,71.45
2022-09-14T17:59:52.913Z,71.31
2022-09-14T18:02:21.203Z,71.42
2022-09-14T18:04:49.642Z,71.17
2022-09-14T18:07:17.941Z,71.54
2022-09-14T18:09:46.380Z,71.57
2022-09-14T18:12:16.176Z,71.53
2022-09-14T18:14:44.596Z,71.69
2022-09-14T18:17:14.432Z,71.65
2022-09-14T18:19:43.726Z,71.54
2022-09-14T18:22:12.184Z,71.76
2022-09-14T18:24:40.803Z,71.63
2022-09-14T18:27:09.605Z,71.50
2022-09-14T18:29:38.176Z,71.06
2022-09-14T18:32:06.820Z,71.21
2022-09-14T18:34:36.632Z,71.20
2022-09-14T18:37:06.564Z,71.06
2022-09-14T18:39:36.457Z,70.78
2022-09-14T18:42:05.140Z,70.65
2022-09-14T18:44:33.540Z,70.70
2022-09-14T18:47:02.209Z,70.51
2022-09-14T18:49:31.246Z,70.71
2022-09-14T18:52:01.423Z,70.87
2022-09-14T18:54:30.132Z,71.05
2022-09-14T18:56:59.551Z,71.21
2022-09-14T18:59:28.680Z,71.04
2022-09-14T19:01:57.382Z,70.83
2022-09-14T19:04:25.894Z,70.63
2022-09-14T19:06:54.544Z,70.71
2022-09-14T19:09:24.808Z,70.31
2022-09-14T19:11:53.333Z,70.42
2022-09-14T19:14:22.272Z,70.43
2022-09-14T19:16:52.650Z,70.04
2022-09-14T19:19:22.907Z,70.00
2022-09-14T19:21:52.880Z,69.72
2022-09-14T19:24:22.953Z,69.85
2022-09-14T19:26:54.967Z,69.83
2022-09-14T19:29:26.305Z,69.82
2022-09-14T19:31:56.259Z,69.98
2022-09-14T19:34:29.378Z,70.07
2022-09-14T19:36:59.265Z,70.15
2022-09-14T19:39:29.938Z,70.23
2022-09-14T19:42:02.296Z,69.90
2022-09-14T19:44:32.046Z,69.83
2022-09-14T19:47:01.806Z,70.20
2022-09-14T19:49:31.633Z,70.19
2022-09-14T19:52:02.855Z,70.27
2022-09-14T19:54:32.629Z,69.89
2022-09-14T19:57:02.767Z,69.49
2022-09-14T19:59:32.689Z,69.66
2022-09-14T20:02:02.605Z,69.59
2022-09-14T20:04:32.693Z,69.77
2022-09-14T20:07:01.128Z,70.06
2022-09-14T20:09:30.293Z,69.98
2022-09-14T20:12:00.100Z,70.23
2022-09-14T20:14:30.073Z,70.43
2022-09-14T20:17:00.203Z,70.61
2022-09-14T20:22:18.614Z,70.53
2022-09-14T20:24:48.685Z,70.33
2022-09-14T20:27:19.175Z,70.24
2022-09-14T20:29:50.425Z,70.23
2022-09-14T20:32:20.413Z,70.40
2022-09-14T20:34:50.117Z,70.42
2022-09-14T20:37:19.908Z,70.47
2022-09-14T20:39:50.889Z,70.43
2022-09-14T20:42:20.654Z,70.40
2022-09-14T20:44:52.422Z,70.47
2022-09-14T20:47:22.342Z,70.68
2022-09-14T20:49:51.910Z,70.45
2022-09-14T20:52:21.714Z,70.19
2022-09-14T20:54:52.226Z,69.89
2022-09-14T20:57:20.860Z,70.00
2022-09-14T20:59:50.789Z,69.98
2022-09-14T21:02:19.344Z,69.90
2022-09-14T21:04:47.788Z,69.82
2022-09-14T21:07:16.116Z,69.52
2022-09-14T21:09:44.795Z,69.70
2022-09-14T21:12:15.778Z,69.96
2022-09-14T21:14:49.364Z,70.12
2022-09-14T21:17:19.582Z,70.51
2022-09-14T21:19:47.853Z,70.67
2022-09-14T21:22:16.280Z,70.52
2022-09-14T21:24:44.959Z,70.26
2022-09-14T21:27:13.309Z,70.12
2022-09-14T21:29:41.656Z,70.26
2022-09-14T21:32:10.396Z,70.24
2022-09-14T21:34:40.203Z,70.26
2022-09-14T21:37:08.883Z,70.38
2022-09-14T21:39:38.186Z,70.29
2022-09-14T21:42:06.987Z,70.19
2022-09-14T21:44:38.215Z,70.39
2022-09-14T21:47:06.911Z,70.31
2022-09-14T21:49:35.262Z,70.47
2022-09-14T21:52:05.421Z,70.47
2022-09-14T21:54:33.970Z,70.61
2022-09-14T21:57:02.356Z,70.74
2022-09-14T21:59:30.984Z,70.57
2022-09-14T22:01:59.399Z,70.65
2022-09-14T22:04:28.152Z,70.52
2022-09-14T22:06:57.330Z,70.25
2022-09-14T22:09:29.034Z,70.31
2022-09-14T22:11:58.331Z,70.52
2022-09-14T22:14:28.861Z,70.63
2022-09-14T22:16:57.733Z,70.58
2022-09-14T22:19:28.338Z,70.62
2022-09-14T22:21:57.061Z,70.50
2022-09-14T22:24:34.862Z,70.30
2022-09-14T22:27:06.533Z,70.71
2022-09-14T22:29:34.960Z,70.25
2022-09-14T22:32:04.459Z,70.24
2022-09-14T22:34:33.577Z,69.91
2022-09-14T22:37:02.010Z,70.23
2022-09-14T22:39:31.825Z,70.33
2022-09-14T22:42:00.331Z,70.55
2022-09-14T22:44:28.788Z,70.61
2022-09-14T22:46:57.480Z,70.70
2022-09-14T22:49:25.859Z,70.74
2022-09-14T22:51:54.237Z,70.79
2022-09-14T22:54:23.632Z,70.68
2022-09-14T22:56:53.422Z,70.78
2022-09-14T22:59:21.848Z,70.87
2022-09-14T23:01:50.326Z,71.19
2022-09-14T23:04:18.788Z,71.09
2022-09-14T23:06:49.090Z,71.02
2022-09-14T23:09:19.775Z,71.20
2022-09-14T23:11:48.664Z,70.94
2022-09-14T23:14:18.896Z,70.86
2022-09-14T23:16:47.302Z,70.93
2022-09-14T23:19:17.835Z,70.79
2022-09-14T23:21:46.736Z,70.76
2022-09-14T23:24:15.548Z,70.86
2022-09-14T23:26:44.705Z,70.90
2022-09-14T23:29:16.476Z,70.95
2022-09-14T23:31:46.387Z,70.89
2022-09-14T23:34:14.959Z,70.92
2022-09-14T23:36:43.388Z,70.92
2022-09-14T23:39:12.560Z,70.95
2022-09-14T23:41:40.982Z,71.04
2022-09-14T23:44:10.908Z,70.99
2022-09-14T23:46:39.432Z,70.91
2022-09-14T23:49:09.426Z,70.72
2022-09-14T23:51:37.912Z,70.92
2022-09-14T23:54:08.401Z,70.99
2022-09-14T23:56:38.300Z,70.97
2022-09-14T23:59:06.704Z,70.92
